sensor_id;sensor_type;location;lat;lon;timestamp;temperature;humidity
39099;DHT22;24844;52.380;7.018;2022-08-03T00:01:22;20.10;99.90
39099;DHT22;24844;52.380;7.018;2022-08-03T00:03:48;20.10;99.90
39099;DHT22;24844;52.380;7.018;2022-08-03T00:06:13;20.10;99.90
39099;DHT22;24844;52.380;7.018;2022-08-03T00:08:39;20.10;99.90
39099;DHT22;24844;52.380;7.018;2022-08-03T00:11:04;20.00;99.90
39099;DHT22;24844;52.380;7.018;2022-08-03T00:13:31;20.00;99.90
39099;DHT22;24844;52.380;7.018;2022-08-03T00:15:57;20.00;99.90
39099;DHT22;24844;52.380;7.018;2022-08-03T00:18:23;20.00;99.90
39099;DHT22;24844;52.380;7.018;2022-08-03T00:20:48;20.00;99.90
39099;DHT22;24844;52.380;7.018;2022-08-03T00:23:14;19.90;99.90
39099;DHT22;24844;52.380;7.018;2022-08-03T00:25:39;20.00;99.90
39099;DHT22;24844;52.380;7.018;2022-08-03T00:28:05;19.80;99.90
39099;DHT22;24844;52.380;7.018;2022-08-03T00:30:30;19.60;99.90
39099;DHT22;24844;52.380;7.018;2022-08-03T00:32:56;19.60;99.90
39099;DHT22;24844;52.380;7.018;2022-08-03T00:35:22;19.70;99.90
39099;DHT22;24844;52.380;7.018;2022-08-03T00:37:47;19.80;99.90
39099;DHT22;24844;52.380;7.018;2022-08-03T00:40:14;19.80;99.90
39099;DHT22;24844;52.380;7.018;2022-08-03T00:42:53;19.80;99.90
39099;DHT22;24844;52.380;7.018;2022-08-03T00:45:19;19.80;99.90
39099;DHT22;24844;52.380;7.018;2022-08-03T00:47:45;19.70;99.90
39099;DHT22;24844;52.380;7.018;2022-08-03T00:50:11;19.60;99.90
39099;DHT22;24844;52.380;7.018;2022-08-03T00:52:36;19.60;99.90
39099;DHT22;24844;52.380;7.018;2022-08-03T00:55:02;19.50;99.90
39099;DHT22;24844;52.380;7.018;2022-08-03T00:57:28;19.30;99.90
39099;DHT22;24844;52.380;7.018;2022-08-03T00:59:54;19.20;99.90
39099;DHT22;24844;52.380;7.018;2022-08-03T01:02:20;19.40;99.90
39099;DHT22;24844;52.380;7.018;2022-08-03T01:04:45;19.50;99.90
39099;DHT22;24844;52.380;7.018;2022-08-03T01:07:16;19.50;99.90
39099;DHT22;24844;52.380;7.018;2022-08-03T01:12:31;19.60;99.90
39099;DHT22;24844;52.380;7.018;2022-08-03T01:15:02;19.50;99.90
39099;DHT22;24844;52.380;7.018;2022-08-03T01:17:33;19.40;99.90
39099;DHT22;24844;52.380;7.018;2022-08-03T01:30:09;19.40;99.90
39099;DHT22;24844;52.380;7.018;2022-08-03T01:35:08;19.30;99.90
39099;DHT22;24844;52.380;7.018;2022-08-03T01:37:36;19.20;99.90
39099;DHT22;24844;52.380;7.018;2022-08-03T01:40:02;19.20;99.90
39099;DHT22;24844;52.380;7.018;2022-08-03T01:42:29;19.10;99.90
39099;DHT22;24844;52.380;7.018;2022-08-03T01:44:55;19.10;99.90
39099;DHT22;24844;52.380;7.018;2022-08-03T01:47:21;19.10;99.90
39099;DHT22;24844;52.380;7.018;2022-08-03T01:49:48;19.00;99.90
39099;DHT22;24844;52.380;7.018;2022-08-03T01:52:16;19.00;99.90
39099;DHT22;24844;52.380;7.018;2022-08-03T01:54:43;19.00;99.90
39099;DHT22;24844;52.380;7.018;2022-08-03T01:57:09;18.90;99.90
39099;DHT22;24844;52.380;7.018;2022-08-03T01:59:36;18.90;99.90
39099;DHT22;24844;52.380;7.018;2022-08-03T02:02:03;18.70;99.90
39099;DHT22;24844;52.380;7.018;2022-08-03T02:04:28;18.50;99.90
39099;DHT22;24844;52.380;7.018;2022-08-03T02:06:54;18.50;99.90
39099;DHT22;24844;52.380;7.018;2022-08-03T02:09:21;18.70;99.90
39099;DHT22;24844;52.380;7.018;2022-08-03T02:11:47;18.80;99.90
39099;DHT22;24844;52.380;7.018;2022-08-03T02:14:13;18.70;99.90
39099;DHT22;24844;52.380;7.018;2022-08-03T02:16:40;18.40;99.90
39099;DHT22;24844;52.380;7.018;2022-08-03T02:19:06;18.40;99.90
39099;DHT22;24844;52.380;7.018;2022-08-03T02:21:32;18.50;99.90
39099;DHT22;24844;52.380;7.018;2022-08-03T02:24:00;18.50;99.90
39099;DHT22;24844;52.380;7.018;2022-08-03T02:26:27;18.40;99.90
39099;DHT22;24844;52.380;7.018;2022-08-03T02:28:53;18.30;99.90
39099;DHT22;24844;52.380;7.018;2022-08-03T02:31:21;18.40;99.90
39099;DHT22;24844;52.380;7.018;2022-08-03T02:33:55;18.50;99.90
39099;DHT22;24844;52.380;7.018;2022-08-03T02:36:23;18.60;99.90
39099;DHT22;24844;52.380;7.018;2022-08-03T02:38:51;18.60;99.90
39099;DHT22;24844;52.380;7.018;2022-08-03T02:41:20;18.60;99.90
39099;DHT22;24844;52.380;7.018;2022-08-03T02:43:47;18.60;99.90
39099;DHT22;24844;52.380;7.018;2022-08-03T02:46:16;18.60;99.90
39099;DHT22;24844;52.380;7.018;2022-08-03T02:48:42;18.60;99.90
39099;DHT22;24844;52.380;7.018;2022-08-03T02:51:09;18.60;99.90
39099;DHT22;24844;52.380;7.018;2022-08-03T02:53:35;18.50;99.90
39099;DHT22;24844;52.380;7.018;2022-08-03T02:56:01;18.50;99.90
39099;DHT22;24844;52.380;7.018;2022-08-03T02:58:28;18.40;99.90
39099;DHT22;24844;52.380;7.018;2022-08-03T03:00:55;18.40;99.90
39099;DHT22;24844;52.380;7.018;2022-08-03T03:03:21;18.40;99.90
39099;DHT22;24844;52.380;7.018;2022-08-03T03:05:47;18.30;99.90
39099;DHT22;24844;52.380;7.018;2022-08-03T03:08:14;18.30;99.90
39099;DHT22;24844;52.380;7.018;2022-08-03T03:10:40;18.20;99.90
39099;DHT22;24844;52.380;7.018;2022-08-03T03:13:06;18.20;99.90
39099;DHT22;24844;52.380;7.018;2022-08-03T03:15:31;18.20;99.90
39099;DHT22;24844;52.380;7.018;2022-08-03T03:18:00;18.20;99.90
39099;DHT22;24844;52.380;7.018;2022-08-03T03:20:25;18.10;99.90
39099;DHT22;24844;52.380;7.018;2022-08-03T03:22:52;18.20;99.90
39099;DHT22;24844;52.380;7.018;2022-08-03T03:25:19;18.20;99.90
39099;DHT22;24844;52.380;7.018;2022-08-03T03:27:45;18.20;99.90
39099;DHT22;24844;52.380;7.018;2022-08-03T03:30:11;18.10;99.90
39099;DHT22;24844;52.380;7.018;2022-08-03T03:32:36;18.10;99.90
39099;DHT22;24844;52.380;7.018;2022-08-03T03:35:04;18.00;99.90
39099;DHT22;24844;52.380;7.018;2022-08-03T03:37:29;18.00;99.90
39099;DHT22;24844;52.380;7.018;2022-08-03T03:39:55;18.00;99.90
39099;DHT22;24844;52.380;7.018;2022-08-03T03:42:20;18.00;99.90
39099;DHT22;24844;52.380;7.018;2022-08-03T03:44:46;18.00;99.90
39099;DHT22;24844;52.380;7.018;2022-08-03T03:47:12;18.00;99.90
39099;DHT22;24844;52.380;7.018;2022-08-03T03:49:37;18.00;99.90
39099;DHT22;24844;52.380;7.018;2022-08-03T03:52:03;18.00;99.90
39099;DHT22;24844;52.380;7.018;2022-08-03T03:54:39;18.00;99.90
39099;DHT22;24844;52.380;7.018;2022-08-03T03:57:05;18.00;99.90
39099;DHT22;24844;52.380;7.018;2022-08-03T03:59:30;18.00;99.90
39099;DHT22;24844;52.380;7.018;2022-08-03T04:01:55;18.00;99.90
39099;DHT22;24844;52.380;7.018;2022-08-03T04:04:22;18.00;99.90
39099;DHT22;24844;52.380;7.018;2022-08-03T04:07:06;18.00;99.90
39099;DHT22;24844;52.380;7.018;2022-08-03T04:09:50;18.00;99.90
39099;DHT22;24844;52.380;7.018;2022-08-03T04:12:34;18.00;99.90
39099;DHT22;24844;52.380;7.018;2022-08-03T04:15:00;17.90;99.90
39099;DHT22;24844;52.380;7.018;2022-08-03T04:17:27;17.80;99.90
39099;DHT22;24844;52.380;7.018;2022-08-03T04:19:53;17.70;99.90
39099;DHT22;24844;52.380;7.018;2022-08-03T04:22:21;17.80;99.90
39099;DHT22;24844;52.380;7.018;2022-08-03T04:24:52;17.90;99.90
39099;DHT22;24844;52.380;7.018;2022-08-03T04:27:20;18.00;99.90
39099;DHT22;24844;52.380;7.018;2022-08-03T04:29:47;18.20;99.90
39099;DHT22;24844;52.380;7.018;2022-08-03T04:32:13;18.20;99.90
39099;DHT22;24844;52.380;7.018;2022-08-03T04:34:39;18.30;99.90
39099;DHT22;24844;52.380;7.018;2022-08-03T04:37:08;18.50;99.90
39099;DHT22;24844;52.380;7.018;2022-08-03T04:39:35;18.70;99.90
39099;DHT22;24844;52.380;7.018;2022-08-03T04:42:01;18.80;99.90
39099;DHT22;24844;52.380;7.018;2022-08-03T04:44:29;18.80;99.90
39099;DHT22;24844;52.380;7.018;2022-08-03T04:46:55;18.90;99.90
39099;DHT22;24844;52.380;7.018;2022-08-03T04:49:22;18.90;99.90
39099;DHT22;24844;52.380;7.018;2022-08-03T04:51:48;19.10;99.90
39099;DHT22;24844;52.380;7.018;2022-08-03T04:54:14;19.10;99.90
39099;DHT22;24844;52.380;7.018;2022-08-03T04:56:40;19.10;99.90
39099;DHT22;24844;52.380;7.018;2022-08-03T04:59:06;19.20;99.90
39099;DHT22;24844;52.380;7.018;2022-08-03T05:01:32;19.30;99.90
39099;DHT22;24844;52.380;7.018;2022-08-03T05:03:57;19.40;99.90
39099;DHT22;24844;52.380;7.018;2022-08-03T05:06:23;19.50;99.90
39099;DHT22;24844;52.380;7.018;2022-08-03T05:08:48;19.70;99.90
39099;DHT22;24844;52.380;7.018;2022-08-03T05:11:14;19.90;99.90
39099;DHT22;24844;52.380;7.018;2022-08-03T05:13:40;20.10;99.90
39099;DHT22;24844;52.380;7.018;2022-08-03T05:16:06;20.10;99.90
39099;DHT22;24844;52.380;7.018;2022-08-03T05:18:31;20.20;99.90
39099;DHT22;24844;52.380;7.018;2022-08-03T05:20:57;20.30;99.90
39099;DHT22;24844;52.380;7.018;2022-08-03T05:23:22;20.40;99.90
39099;DHT22;24844;52.380;7.018;2022-08-03T05:25:48;20.50;99.90
39099;DHT22;24844;52.380;7.018;2022-08-03T05:28:14;20.70;99.90
39099;DHT22;24844;52.380;7.018;2022-08-03T05:30:39;20.60;99.90
39099;DHT22;24844;52.380;7.018;2022-08-03T05:33:05;20.70;99.90
39099;DHT22;24844;52.380;7.018;2022-08-03T05:35:31;20.90;99.90
39099;DHT22;24844;52.380;7.018;2022-08-03T05:37:57;21.10;99.90
39099;DHT22;24844;52.380;7.018;2022-08-03T05:40:22;21.20;99.90
39099;DHT22;24844;52.380;7.018;2022-08-03T05:42:48;21.20;99.90
39099;DHT22;24844;52.380;7.018;2022-08-03T05:45:14;21.40;99.90
39099;DHT22;24844;52.380;7.018;2022-08-03T05:47:43;21.50;99.90
39099;DHT22;24844;52.380;7.018;2022-08-03T05:50:11;21.40;99.90
39099;DHT22;24844;52.380;7.018;2022-08-03T05:52:38;21.30;99.90
39099;DHT22;24844;52.380;7.018;2022-08-03T05:55:06;21.60;99.90
39099;DHT22;24844;52.380;7.018;2022-08-03T05:57:32;21.70;99.90
39099;DHT22;24844;52.380;7.018;2022-08-03T05:59:58;21.90;99.90
39099;DHT22;24844;52.380;7.018;2022-08-03T06:02:24;21.60;99.90
39099;DHT22;24844;52.380;7.018;2022-08-03T06:04:49;21.50;99.90
39099;DHT22;24844;52.380;7.018;2022-08-03T06:07:15;21.60;99.90
39099;DHT22;24844;52.380;7.018;2022-08-03T06:09:40;21.80;99.90
39099;DHT22;24844;52.380;7.018;2022-08-03T06:12:06;22.00;99.90
39099;DHT22;24844;52.380;7.018;2022-08-03T06:14:32;22.10;99.90
39099;DHT22;24844;52.380;7.018;2022-08-03T06:16:57;22.30;99.90
39099;DHT22;24844;52.380;7.018;2022-08-03T06:19:22;22.40;99.90
39099;DHT22;24844;52.380;7.018;2022-08-03T06:21:48;22.60;99.90
39099;DHT22;24844;52.380;7.018;2022-08-03T06:24:14;22.80;99.90
39099;DHT22;24844;52.380;7.018;2022-08-03T06:26:40;22.90;99.90
39099;DHT22;24844;52.380;7.018;2022-08-03T06:29:06;22.90;99.90
39099;DHT22;24844;52.380;7.018;2022-08-03T06:31:31;23.20;99.90
39099;DHT22;24844;52.380;7.018;2022-08-03T06:33:57;23.50;99.90
39099;DHT22;24844;52.380;7.018;2022-08-03T06:36:22;23.70;99.90
39099;DHT22;24844;52.380;7.018;2022-08-03T06:38:48;23.90;99.90
39099;DHT22;24844;52.380;7.018;2022-08-03T06:41:13;24.10;99.90
39099;DHT22;24844;52.380;7.018;2022-08-03T06:43:40;24.20;99.90
39099;DHT22;24844;52.380;7.018;2022-08-03T06:46:06;24.30;99.90
39099;DHT22;24844;52.380;7.018;2022-08-03T06:48:32;24.50;99.90
39099;DHT22;24844;52.380;7.018;2022-08-03T06:50:57;24.60;99.90
39099;DHT22;24844;52.380;7.018;2022-08-03T06:53:23;24.80;99.90
39099;DHT22;24844;52.380;7.018;2022-08-03T06:55:49;24.60;99.90
39099;DHT22;24844;52.380;7.018;2022-08-03T06:58:14;24.60;99.90
39099;DHT22;24844;52.380;7.018;2022-08-03T07:00:40;24.90;99.90
39099;DHT22;24844;52.380;7.018;2022-08-03T07:03:05;25.00;99.90
39099;DHT22;24844;52.380;7.018;2022-08-03T07:05:31;25.10;99.90
39099;DHT22;24844;52.380;7.018;2022-08-03T07:07:59;25.40;99.90
39099;DHT22;24844;52.380;7.018;2022-08-03T07:10:26;25.90;99.90
39099;DHT22;24844;52.380;7.018;2022-08-03T07:12:51;26.00;99.90
39099;DHT22;24844;52.380;7.018;2022-08-03T07:15:17;25.90;99.90
39099;DHT22;24844;52.380;7.018;2022-08-03T07:17:43;26.60;99.90
39099;DHT22;24844;52.380;7.018;2022-08-03T07:20:08;26.80;99.90
39099;DHT22;24844;52.380;7.018;2022-08-03T07:22:34;26.80;99.90
39099;DHT22;24844;52.380;7.018;2022-08-03T07:24:59;27.30;99.90
39099;DHT22;24844;52.380;7.018;2022-08-03T07:27:25;27.60;99.90
39099;DHT22;24844;52.380;7.018;2022-08-03T07:29:52;28.20;99.70
39099;DHT22;24844;52.380;7.018;2022-08-03T07:32:18;28.70;98.50
39099;DHT22;24844;52.380;7.018;2022-08-03T07:34:43;29.10;99.90
39099;DHT22;24844;52.380;7.018;2022-08-03T07:37:09;29.90;99.90
39099;DHT22;24844;52.380;7.018;2022-08-03T07:39:34;30.00;99.90
39099;DHT22;24844;52.380;7.018;2022-08-03T07:41:59;30.20;99.90
39099;DHT22;24844;52.380;7.018;2022-08-03T07:44:25;30.50;99.90
39099;DHT22;24844;52.380;7.018;2022-08-03T07:46:50;30.50;99.90
39099;DHT22;24844;52.380;7.018;2022-08-03T07:49:16;31.10;99.90
39099;DHT22;24844;52.380;7.018;2022-08-03T07:51:41;31.60;99.90
39099;DHT22;24844;52.380;7.018;2022-08-03T07:54:07;32.00;98.60
39099;DHT22;24844;52.380;7.018;2022-08-03T07:56:34;32.00;99.40
39099;DHT22;24844;52.380;7.018;2022-08-03T07:59:00;32.40;98.00
39099;DHT22;24844;52.380;7.018;2022-08-03T08:01:27;32.80;97.20
39099;DHT22;24844;52.380;7.018;2022-08-03T08:03:53;32.40;96.60
39099;DHT22;24844;52.380;7.018;2022-08-03T08:06:19;32.20;96.70
39099;DHT22;24844;52.380;7.018;2022-08-03T08:08:44;32.80;96.80
39099;DHT22;24844;52.380;7.018;2022-08-03T08:11:10;33.40;95.80
39099;DHT22;24844;52.380;7.018;2022-08-03T08:13:35;34.10;95.10
39099;DHT22;24844;52.380;7.018;2022-08-03T08:16:04;34.80;93.90
39099;DHT22;24844;52.380;7.018;2022-08-03T08:18:30;35.30;92.30
39099;DHT22;24844;52.380;7.018;2022-08-03T08:20:55;35.20;91.40
39099;DHT22;24844;52.380;7.018;2022-08-03T08:23:21;35.50;91.90
39099;DHT22;24844;52.380;7.018;2022-08-03T08:25:50;35.90;91.30
39099;DHT22;24844;52.380;7.018;2022-08-03T08:28:21;36.30;86.90
39099;DHT22;24844;52.380;7.018;2022-08-03T08:30:47;36.20;88.60
39099;DHT22;24844;52.380;7.018;2022-08-03T08:33:13;35.30;85.40
39099;DHT22;24844;52.380;7.018;2022-08-03T08:35:38;35.40;85.20
39099;DHT22;24844;52.380;7.018;2022-08-03T08:38:04;34.60;85.70
39099;DHT22;24844;52.380;7.018;2022-08-03T08:40:29;35.10;85.10
39099;DHT22;24844;52.380;7.018;2022-08-03T08:42:55;34.40;87.00
39099;DHT22;24844;52.380;7.018;2022-08-03T08:45:20;35.70;84.40
39099;DHT22;24844;52.380;7.018;2022-08-03T08:47:46;35.80;84.50
39099;DHT22;24844;52.380;7.018;2022-08-03T08:50:13;35.70;81.10
39099;DHT22;24844;52.380;7.018;2022-08-03T08:52:40;36.10;83.30
39099;DHT22;24844;52.380;7.018;2022-08-03T08:55:08;37.00;82.10
39099;DHT22;24844;52.380;7.018;2022-08-03T08:57:37;38.00;76.90
39099;DHT22;24844;52.380;7.018;2022-08-03T09:00:06;38.20;74.80
39099;DHT22;24844;52.380;7.018;2022-08-03T09:02:33;38.80;75.60
39099;DHT22;24844;52.380;7.018;2022-08-03T09:04:59;39.60;74.70
39099;DHT22;24844;52.380;7.018;2022-08-03T09:07:26;39.90;59.90
39099;DHT22;24844;52.380;7.018;2022-08-03T09:09:52;40.40;57.80
39099;DHT22;24844;52.380;7.018;2022-08-03T09:12:17;40.50;58.00
39099;DHT22;24844;52.380;7.018;2022-08-03T09:14:43;39.50;57.90
39099;DHT22;24844;52.380;7.018;2022-08-03T09:17:08;40.20;55.70
39099;DHT22;24844;52.380;7.018;2022-08-03T09:19:34;40.20;56.20
39099;DHT22;24844;52.380;7.018;2022-08-03T09:22:13;40.30;54.50
39099;DHT22;24844;52.380;7.018;2022-08-03T09:24:52;40.00;54.20
39099;DHT22;24844;52.380;7.018;2022-08-03T09:27:19;40.50;54.60
39099;DHT22;24844;52.380;7.018;2022-08-03T09:29:48;40.00;54.50
39099;DHT22;24844;52.380;7.018;2022-08-03T09:32:14;40.30;54.30
39099;DHT22;24844;52.380;7.018;2022-08-03T09:34:39;38.40;54.00
39099;DHT22;24844;52.380;7.018;2022-08-03T09:37:11;39.20;55.00
39099;DHT22;24844;52.380;7.018;2022-08-03T09:39:37;37.60;55.10
39099;DHT22;24844;52.380;7.018;2022-08-03T09:42:04;36.30;56.10
39099;DHT22;24844;52.380;7.018;2022-08-03T09:44:37;36.10;57.20
39099;DHT22;24844;52.380;7.018;2022-08-03T09:47:03;36.90;56.30
39099;DHT22;24844;52.380;7.018;2022-08-03T09:49:29;38.30;54.70
39099;DHT22;24844;52.380;7.018;2022-08-03T09:51:55;37.50;53.90
39099;DHT22;24844;52.380;7.018;2022-08-03T09:54:30;37.70;54.20
39099;DHT22;24844;52.380;7.018;2022-08-03T09:56:56;38.20;52.70
39099;DHT22;24844;52.380;7.018;2022-08-03T09:59:25;38.10;52.40
39099;DHT22;24844;52.380;7.018;2022-08-03T10:01:51;39.30;52.80
39099;DHT22;24844;52.380;7.018;2022-08-03T10:04:17;39.40;51.30
39099;DHT22;24844;52.380;7.018;2022-08-03T10:06:43;40.30;51.70
39099;DHT22;24844;52.380;7.018;2022-08-03T10:09:13;40.80;50.70
39099;DHT22;24844;52.380;7.018;2022-08-03T10:11:39;41.50;50.00
39099;DHT22;24844;52.380;7.018;2022-08-03T10:14:05;41.50;50.10
39099;DHT22;24844;52.380;7.018;2022-08-03T10:16:35;40.20;49.10
39099;DHT22;24844;52.380;7.018;2022-08-03T10:19:02;40.90;49.80
39099;DHT22;24844;52.380;7.018;2022-08-03T10:21:29;41.60;48.70
39099;DHT22;24844;52.380;7.018;2022-08-03T10:23:56;41.50;48.20
39099;DHT22;24844;52.380;7.018;2022-08-03T10:26:21;41.60;47.30
39099;DHT22;24844;52.380;7.018;2022-08-03T10:28:49;41.50;47.60
39099;DHT22;24844;52.380;7.018;2022-08-03T10:31:17;42.30;47.00
39099;DHT22;24844;52.380;7.018;2022-08-03T10:33:45;42.00;47.10
39099;DHT22;24844;52.380;7.018;2022-08-03T10:36:11;41.20;47.20
39099;DHT22;24844;52.380;7.018;2022-08-03T10:38:45;41.70;48.10
39099;DHT22;24844;52.380;7.018;2022-08-03T10:41:11;41.40;46.90
39099;DHT22;24844;52.380;7.018;2022-08-03T10:43:41;41.50;47.50
39099;DHT22;24844;52.380;7.018;2022-08-03T10:46:09;40.80;47.60
39099;DHT22;24844;52.380;7.018;2022-08-03T10:48:35;40.00;47.00
39099;DHT22;24844;52.380;7.018;2022-08-03T10:51:01;39.50;49.00
39099;DHT22;24844;52.380;7.018;2022-08-03T10:53:33;39.60;49.00
39099;DHT22;24844;52.380;7.018;2022-08-03T10:56:01;39.90;48.10
39099;DHT22;24844;52.380;7.018;2022-08-03T10:58:45;40.50;47.80
39099;DHT22;24844;52.380;7.018;2022-08-03T11:01:11;41.80;48.40
39099;DHT22;24844;52.380;7.018;2022-08-03T11:06:18;41.70;46.10
39099;DHT22;24844;52.380;7.018;2022-08-03T11:08:47;41.50;45.30
39099;DHT22;24844;52.380;7.018;2022-08-03T11:13:57;40.40;46.50
39099;DHT22;24844;52.380;7.018;2022-08-03T11:16:23;39.80;47.70
39099;DHT22;24844;52.380;7.018;2022-08-03T11:18:57;38.60;50.40
39099;DHT22;24844;52.380;7.018;2022-08-03T11:24:07;36.80;51.30
39099;DHT22;24844;52.380;7.018;2022-08-03T11:26:33;36.30;52.10
39099;DHT22;24844;52.380;7.018;2022-08-03T11:31:43;35.10;54.90
39099;DHT22;24844;52.380;7.018;2022-08-03T11:34:10;34.70;56.40
39099;DHT22;24844;52.380;7.018;2022-08-03T11:39:20;33.80;55.50
39099;DHT22;24844;52.380;7.018;2022-08-03T11:41:45;33.50;55.80
39099;DHT22;24844;52.380;7.018;2022-08-03T11:44:38;32.80;56.30
39099;DHT22;24844;52.380;7.018;2022-08-03T11:46:56;33.10;56.10
39099;DHT22;24844;52.380;7.018;2022-08-03T11:49:23;32.60;57.40
39099;DHT22;24844;52.380;7.018;2022-08-03T11:51:51;32.40;58.70
39099;DHT22;24844;52.380;7.018;2022-08-03T11:54:17;32.20;58.90
39099;DHT22;24844;52.380;7.018;2022-08-03T11:56:47;32.30;57.70
39099;DHT22;24844;52.380;7.018;2022-08-03T11:59:14;32.50;57.60
39099;DHT22;24844;52.380;7.018;2022-08-03T12:01:39;32.30;59.00
39099;DHT22;24844;52.380;7.018;2022-08-03T12:04:05;32.10;58.10
39099;DHT22;24844;52.380;7.018;2022-08-03T12:06:30;32.20;58.70
39099;DHT22;24844;52.380;7.018;2022-08-03T12:09:16;32.50;59.30
39099;DHT22;24844;52.380;7.018;2022-08-03T12:11:41;32.20;60.60
39099;DHT22;24844;52.380;7.018;2022-08-03T12:14:07;32.00;59.50
39099;DHT22;24844;52.380;7.018;2022-08-03T12:16:32;31.90;59.30
39099;DHT22;24844;52.380;7.018;2022-08-03T12:18:59;32.00;58.70
39099;DHT22;24844;52.380;7.018;2022-08-03T12:21:24;32.00;59.30
39099;DHT22;24844;52.380;7.018;2022-08-03T12:23:50;32.20;59.70
39099;DHT22;24844;52.380;7.018;2022-08-03T12:26:20;32.10;59.60
39099;DHT22;24844;52.380;7.018;2022-08-03T12:28:46;31.90;59.80
39099;DHT22;24844;52.380;7.018;2022-08-03T12:31:11;32.00;60.90
39099;DHT22;24844;52.380;7.018;2022-08-03T12:36:22;31.40;59.00
39099;DHT22;24844;52.380;7.018;2022-08-03T12:38:55;31.60;60.60
39099;DHT22;24844;52.380;7.018;2022-08-03T12:41:26;31.30;60.10
39099;DHT22;24844;52.380;7.018;2022-08-03T12:43:52;31.50;63.00
39099;DHT22;24844;52.380;7.018;2022-08-03T12:46:19;31.80;61.10
39099;DHT22;24844;52.380;7.018;2022-08-03T12:49:01;31.80;61.60
39099;DHT22;24844;52.380;7.018;2022-08-03T12:51:27;32.00;61.00
39099;DHT22;24844;52.380;7.018;2022-08-03T12:53:53;32.20;59.20
39099;DHT22;24844;52.380;7.018;2022-08-03T12:56:19;32.00;59.30
39099;DHT22;24844;52.380;7.018;2022-08-03T12:58:45;32.00;59.50
39099;DHT22;24844;52.380;7.018;2022-08-03T13:01:12;32.10;59.40
39099;DHT22;24844;52.380;7.018;2022-08-03T13:03:42;32.30;62.30
39099;DHT22;24844;52.380;7.018;2022-08-03T13:06:11;32.70;59.60
39099;DHT22;24844;52.380;7.018;2022-08-03T13:08:37;32.70;60.60
39099;DHT22;24844;52.380;7.018;2022-08-03T13:11:18;32.90;59.50
39099;DHT22;24844;52.380;7.018;2022-08-03T13:13:44;32.80;59.60
39099;DHT22;24844;52.380;7.018;2022-08-03T13:16:10;32.70;58.90
39099;DHT22;24844;52.380;7.018;2022-08-03T13:18:35;32.50;59.20
39099;DHT22;24844;52.380;7.018;2022-08-03T13:21:01;32.50;59.40
39099;DHT22;24844;52.380;7.018;2022-08-03T13:23:26;32.30;59.70
39099;DHT22;24844;52.380;7.018;2022-08-03T13:25:52;32.40;60.60
39099;DHT22;24844;52.380;7.018;2022-08-03T13:28:18;32.60;59.20
39099;DHT22;24844;52.380;7.018;2022-08-03T13:30:43;32.50;58.70
39099;DHT22;24844;52.380;7.018;2022-08-03T13:33:08;32.40;59.60
39099;DHT22;24844;52.380;7.018;2022-08-03T13:35:34;32.40;59.20
39099;DHT22;24844;52.380;7.018;2022-08-03T13:37:59;32.40;57.90
39099;DHT22;24844;52.380;7.018;2022-08-03T13:40:25;32.30;59.30
39099;DHT22;24844;52.380;7.018;2022-08-03T13:42:50;32.20;60.00
39099;DHT22;24844;52.380;7.018;2022-08-03T13:45:16;32.30;58.80
39099;DHT22;24844;52.380;7.018;2022-08-03T13:47:41;32.20;58.60
39099;DHT22;24844;52.380;7.018;2022-08-03T13:50:07;32.00;57.80
39099;DHT22;24844;52.380;7.018;2022-08-03T13:52:33;32.10;59.10
39099;DHT22;24844;52.380;7.018;2022-08-03T13:54:59;32.10;59.10
39099;DHT22;24844;52.380;7.018;2022-08-03T13:57:24;31.90;59.90
39099;DHT22;24844;52.380;7.018;2022-08-03T13:59:50;32.20;58.20
39099;DHT22;24844;52.380;7.018;2022-08-03T14:02:15;32.30;57.80
39099;DHT22;24844;52.380;7.018;2022-08-03T14:04:41;32.40;57.40
39099;DHT22;24844;52.380;7.018;2022-08-03T14:07:06;32.20;56.40
39099;DHT22;24844;52.380;7.018;2022-08-03T14:09:32;32.20;56.90
39099;DHT22;24844;52.380;7.018;2022-08-03T14:11:57;31.70;56.60
39099;DHT22;24844;52.380;7.018;2022-08-03T14:14:24;32.00;59.10
39099;DHT22;24844;52.380;7.018;2022-08-03T14:16:49;32.20;57.60
39099;DHT22;24844;52.380;7.018;2022-08-03T14:19:14;32.30;58.10
39099;DHT22;24844;52.380;7.018;2022-08-03T14:21:40;32.50;59.10
39099;DHT22;24844;52.380;7.018;2022-08-03T14:24:05;32.70;56.60
39099;DHT22;24844;52.380;7.018;2022-08-03T14:26:31;32.60;58.10
39099;DHT22;24844;52.380;7.018;2022-08-03T14:28:56;32.60;57.40
39099;DHT22;24844;52.380;7.018;2022-08-03T14:31:22;32.60;57.90
39099;DHT22;24844;52.380;7.018;2022-08-03T14:33:48;32.30;58.10
39099;DHT22;24844;52.380;7.018;2022-08-03T14:36:13;32.40;58.60
39099;DHT22;24844;52.380;7.018;2022-08-03T14:38:39;32.40;57.50
39099;DHT22;24844;52.380;7.018;2022-08-03T14:41:04;32.50;58.30
39099;DHT22;24844;52.380;7.018;2022-08-03T14:43:30;32.50;58.20
39099;DHT22;24844;52.380;7.018;2022-08-03T14:45:55;32.30;58.70
39099;DHT22;24844;52.380;7.018;2022-08-03T14:48:21;32.30;58.60
39099;DHT22;24844;52.380;7.018;2022-08-03T14:50:47;32.40;60.40
39099;DHT22;24844;52.380;7.018;2022-08-03T14:53:13;32.40;59.60
39099;DHT22;24844;52.380;7.018;2022-08-03T14:55:38;32.40;59.50
39099;DHT22;24844;52.380;7.018;2022-08-03T14:58:04;32.50;58.90
39099;DHT22;24844;52.380;7.018;2022-08-03T15:00:31;32.20;58.90
39099;DHT22;24844;52.380;7.018;2022-08-03T15:02:57;32.50;59.10
39099;DHT22;24844;52.380;7.018;2022-08-03T15:05:22;32.30;60.20
39099;DHT22;24844;52.380;7.018;2022-08-03T15:07:48;32.50;59.40
39099;DHT22;24844;52.380;7.018;2022-08-03T15:10:14;32.70;59.70
39099;DHT22;24844;52.380;7.018;2022-08-03T15:12:39;32.30;58.70
39099;DHT22;24844;52.380;7.018;2022-08-03T15:15:05;32.40;58.40
39099;DHT22;24844;52.380;7.018;2022-08-03T15:17:31;32.50;57.60
39099;DHT22;24844;52.380;7.018;2022-08-03T15:19:56;32.50;58.10
39099;DHT22;24844;52.380;7.018;2022-08-03T15:22:22;32.60;56.90
39099;DHT22;24844;52.380;7.018;2022-08-03T15:24:48;32.50;57.80
39099;DHT22;24844;52.380;7.018;2022-08-03T15:27:13;32.30;57.40
39099;DHT22;24844;52.380;7.018;2022-08-03T15:29:39;32.40;57.50
39099;DHT22;24844;52.380;7.018;2022-08-03T15:32:04;32.30;57.50
39099;DHT22;24844;52.380;7.018;2022-08-03T15:34:30;32.50;57.30
39099;DHT22;24844;52.380;7.018;2022-08-03T15:36:55;32.30;56.10
39099;DHT22;24844;52.380;7.018;2022-08-03T15:39:21;32.30;57.30
39099;DHT22;24844;52.380;7.018;2022-08-03T15:41:46;32.30;57.60
39099;DHT22;24844;52.380;7.018;2022-08-03T15:44:12;32.10;57.00
39099;DHT22;24844;52.380;7.018;2022-08-03T15:46:37;32.30;57.90
39099;DHT22;24844;52.380;7.018;2022-08-03T15:49:02;32.10;57.80
39099;DHT22;24844;52.380;7.018;2022-08-03T15:51:28;32.10;58.30
39099;DHT22;24844;52.380;7.018;2022-08-03T15:53:54;31.90;58.40
39099;DHT22;24844;52.380;7.018;2022-08-03T15:56:21;32.00;59.50
39099;DHT22;24844;52.380;7.018;2022-08-03T15:58:47;32.10;59.10